createdAt,value
2022-12-04T00:00:20.787Z,86.85
2022-12-04T00:02:47.281Z,87.12
2022-12-04T00:05:13.834Z,86.38
2022-12-04T00:07:40.394Z,86.70
2022-12-04T00:10:07.440Z,86.47
2022-12-04T00:12:35.387Z,86.79
2022-12-04T00:17:49.200Z,86.52
2022-12-04T00:20:15.812Z,87.12
2022-12-04T00:22:42.218Z,88.26
2022-12-04T00:25:09.023Z,87.89
2022-12-04T00:27:35.474Z,87.62
2022-12-04T00:30:02.002Z,87.60
2022-12-04T00:32:28.445Z,87.76
2022-12-04T00:34:54.862Z,86.92
2022-12-04T00:37:21.304Z,86.68
2022-12-04T00:39:47.672Z,86.98
2022-12-04T00:42:14.139Z,86.49
2022-12-04T00:44:40.520Z,86.37
2022-12-04T00:47:07.023Z,85.87
2022-12-04T00:49:33.487Z,86.86
2022-12-04T00:51:59.913Z,86.82
2022-12-04T00:54:26.339Z,87.32
2022-12-04T00:56:52.768Z,87.09
2022-12-04T00:59:19.230Z,87.27
2022-12-04T01:01:45.683Z,86.98
2022-12-04T01:04:12.190Z,86.38
2022-12-04T01:06:38.587Z,87.15
2022-12-04T01:09:05.855Z,86.58
2022-12-04T01:11:33.013Z,86.09
2022-12-04T01:14:00.130Z,85.90
2022-12-04T01:16:34.273Z,86.01
2022-12-04T01:19:01.348Z,87.05
2022-12-04T01:21:27.884Z,86.28
2022-12-04T01:23:55.007Z,87.12
2022-12-04T01:26:21.468Z,86.28
2022-12-04T01:28:48.569Z,87.14
2022-12-04T01:31:18.163Z,86.91
2022-12-04T01:33:45.407Z,85.68
2022-12-04T01:36:23.976Z,86.30
2022-12-04T01:38:50.897Z,86.41
2022-12-04T01:41:21.669Z,87.38
2022-12-04T01:44:10.314Z,86.62
2022-12-04T01:46:36.953Z,86.23
2022-12-04T01:49:06.092Z,85.66
2022-12-04T01:51:37.034Z,87.07
2022-12-04T01:54:11.903Z,87.41
2022-12-04T01:57:07.927Z,86.56
2022-12-04T01:59:42.365Z,86.78
2022-12-04T02:02:12.811Z,86.05
2022-12-04T02:04:41.010Z,85.44
2022-12-04T02:07:07.421Z,85.93
2022-12-04T02:09:35.329Z,87.14
2022-12-04T02:12:17.014Z,87.36
2022-12-04T02:14:56.444Z,86.85
2022-12-04T02:17:35.219Z,86.25
2022-12-04T02:20:20.433Z,86.91
2022-12-04T02:22:49.782Z,86.40
2022-12-04T02:25:28.306Z,86.55
2022-12-04T02:28:25.394Z,86.60
2022-12-04T02:30:57.728Z,85.42
2022-12-04T02:33:29.720Z,87.09
2022-12-04T02:36:22.541Z,87.17
2022-12-04T02:39:02.652Z,85.69
2022-12-04T02:41:44.738Z,85.93
2022-12-04T02:44:20.186Z,87.31
2022-12-04T02:46:51.111Z,87.47
2022-12-04T02:49:24.848Z,86.50
2022-12-04T02:51:53.679Z,86.25
2022-12-04T02:54:36.027Z,86.62
2022-12-04T02:57:07.253Z,86.53
2022-12-04T02:59:37.911Z,85.74
2022-12-04T03:02:12.261Z,86.47
2022-12-04T03:04:41.084Z,85.46
2022-12-04T03:07:14.778Z,85.24
2022-12-04T03:09:55.623Z,86.50
2022-12-04T03:12:38.709Z,87.09
2022-12-04T03:15:24.309Z,86.46
2022-12-04T03:17:56.201Z,86.70
2022-12-04T03:20:24.171Z,87.42
2022-12-04T03:22:58.196Z,87.27
2022-12-04T03:25:43.577Z,87.29
2022-12-04T03:28:20.491Z,87.07
2022-12-04T03:30:56.763Z,86.07
2022-12-04T03:33:41.159Z,86.10
2022-12-04T03:36:23.842Z,86.27
2022-12-04T03:39:08.396Z,85.46
2022-12-04T03:42:01.962Z,85.88
2022-12-04T03:44:38.102Z,86.59
2022-12-04T03:47:14.611Z,85.63
2022-12-04T03:49:51.156Z,85.41
2022-12-04T03:52:34.221Z,85.84
2022-12-04T03:55:14.208Z,85.62
2022-12-04T03:57:45.272Z,86.08
2022-12-04T04:00:15.931Z,86.50
2022-12-04T04:02:55.178Z,86.54
2022-12-04T04:05:24.133Z,86.35
2022-12-04T04:08:17.849Z,86.47
2022-12-04T04:10:44.960Z,86.67
2022-12-04T04:13:33.387Z,86.65
2022-12-04T04:16:21.252Z,86.27
2022-12-04T04:19:10.142Z,86.25
2022-12-04T04:21:57.386Z,86.33
2022-12-04T04:24:26.613Z,86.21
2022-12-04T04:26:54.977Z,85.34
2022-12-04T04:29:24.176Z,85.83
2022-12-04T04:32:03.387Z,86.17
2022-12-04T04:34:39.934Z,86.25
2022-12-04T04:37:34.347Z,86.39
2022-12-04T04:40:23.989Z,86.46
2022-12-04T04:43:10.374Z,86.17
2022-12-04T04:45:42.303Z,87.32
2022-12-04T04:48:18.543Z,85.55
2022-12-04T04:50:46.175Z,85.48
2022-12-04T04:53:20.209Z,86.20
2022-12-04T04:55:47.523Z,85.07
2022-12-04T04:58:19.272Z,86.24
2022-12-04T05:00:59.597Z,86.09
2022-12-04T05:03:27.254Z,85.58
2022-12-04T05:05:53.721Z,85.52
2022-12-04T05:08:20.836Z,86.14
2022-12-04T05:10:47.383Z,86.02
2022-12-04T05:13:15.006Z,86.33
2022-12-04T05:15:42.103Z,85.32
2022-12-04T05:18:09.498Z,86.50
2022-12-04T05:20:40.537Z,86.01
2022-12-04T05:23:07.359Z,85.60
2022-12-04T05:25:33.790Z,85.59
2022-12-04T05:28:00.249Z,85.35
2022-12-04T05:30:26.673Z,85.07
2022-12-04T05:32:53.222Z,85.76
2022-12-04T05:35:19.643Z,86.13
2022-12-04T05:37:46.419Z,86.04
2022-12-04T05:40:12.956Z,84.79
2022-12-04T05:42:39.354Z,85.45
2022-12-04T05:45:06.537Z,85.48
2022-12-04T05:47:41.089Z,85.55
2022-12-04T05:50:09.501Z,86.58
2022-12-04T05:52:36.192Z,86.12
2022-12-04T05:55:02.674Z,85.63
2022-12-04T05:57:30.171Z,85.39
2022-12-04T05:59:57.077Z,86.30
2022-12-04T06:02:23.723Z,85.87
2022-12-04T06:04:50.857Z,86.32
2022-12-04T06:07:17.274Z,86.45
2022-12-04T06:09:43.793Z,86.54
2022-12-04T06:12:10.216Z,86.27
2022-12-04T06:14:39.706Z,86.67
2022-12-04T06:17:06.862Z,86.53
2022-12-04T06:19:33.349Z,85.68
2022-12-04T06:21:59.733Z,87.32
2022-12-04T06:24:26.373Z,86.52
2022-12-04T06:27:26.285Z,86.63
2022-12-04T06:29:43.716Z,86.17
2022-12-04T06:32:10.162Z,86.67
2022-12-04T06:34:37.074Z,85.85
2022-12-04T06:37:03.699Z,85.85
2022-12-04T06:39:30.145Z,86.47
2022-12-04T06:41:56.552Z,86.43
2022-12-04T06:44:23.128Z,85.18
2022-12-04T06:46:50.158Z,85.73
2022-12-04T06:49:16.766Z,86.64
2022-12-04T06:51:43.255Z,87.00
2022-12-04T06:54:10.423Z,86.04
2022-12-04T06:56:36.969Z,85.69
2022-12-04T06:59:04.738Z,86.33
2022-12-04T07:01:33.219Z,86.81
2022-12-04T07:04:01.160Z,86.95
2022-12-04T07:06:39.302Z,87.27
2022-12-04T07:09:15.635Z,86.81
2022-12-04T07:11:43.166Z,87.41
2022-12-04T07:14:11.514Z,87.06
2022-12-04T07:16:41.422Z,87.40
2022-12-04T07:19:13.630Z,87.40
2022-12-04T07:21:40.374Z,87.47
2022-12-04T07:24:06.929Z,86.99
2022-12-04T07:26:33.378Z,86.43
2022-12-04T07:28:59.845Z,87.24
2022-12-04T07:31:29.184Z,87.87
2022-12-04T07:33:56.608Z,86.84
2022-12-04T07:36:24.910Z,87.10
2022-12-04T07:38:51.835Z,86.56
2022-12-04T07:41:18.757Z,87.33
2022-12-04T07:43:45.605Z,87.58
2022-12-04T07:46:15.268Z,86.92
2022-12-04T07:48:42.239Z,86.78
2022-12-04T07:51:14.367Z,87.21
2022-12-04T07:53:42.058Z,88.39
2022-12-04T07:56:10.046Z,88.62
2022-12-04T07:58:36.515Z,87.67
2022-12-04T08:01:17.206Z,88.19
2022-12-04T08:03:48.497Z,88.30
2022-12-04T08:06:18.233Z,89.16
2022-12-04T08:08:45.756Z,89.40
2022-12-04T08:11:14.570Z,88.40
2022-12-04T08:13:41.022Z,87.46
2022-12-04T08:16:10.092Z,88.10
2022-12-04T08:18:36.819Z,87.80
2022-12-04T08:21:08.819Z,87.60
2022-12-04T08:23:36.536Z,88.28
2022-12-04T08:26:04.460Z,88.73
2022-12-04T08:28:31.390Z,88.63
2022-12-04T08:31:09.003Z,88.14
2022-12-04T08:33:36.010Z,88.78
2022-12-04T08:36:06.076Z,90.59
2022-12-04T08:38:32.473Z,89.52
2022-12-04T08:41:03.934Z,88.23
2022-12-04T08:43:30.951Z,89.96
2022-12-04T08:46:02.779Z,90.05
2022-12-04T08:48:29.676Z,91.03
2022-12-04T08:50:56.247Z,90.70
2022-12-04T08:53:23.444Z,90.17
2022-12-04T08:55:50.788Z,89.46
2022-12-04T08:58:17.925Z,90.13
2022-12-04T09:00:44.645Z,89.99
2022-12-04T09:03:17.115Z,90.52
2022-12-04T09:05:46.006Z,90.36
2022-12-04T09:08:14.326Z,89.94
2022-12-04T09:10:41.363Z,89.95
2022-12-04T09:13:08.214Z,89.96
2022-12-04T09:15:34.996Z,89.89
2022-12-04T09:18:01.458Z,89.80
2022-12-04T09:20:27.981Z,89.91
2022-12-04T09:23:03.820Z,90.58
2022-12-04T09:25:31.779Z,90.40
2022-12-04T09:27:58.351Z,91.15
2022-12-04T09:30:24.874Z,90.52
2022-12-04T09:32:51.362Z,91.16
2022-12-04T09:35:17.907Z,90.54
2022-12-04T09:37:44.303Z,91.13
2022-12-04T09:40:38.115Z,90.91
2022-12-04T09:43:21.855Z,91.73
2022-12-04T09:45:53.610Z,91.75
2022-12-04T09:48:22.235Z,90.34
2022-12-04T09:50:50.811Z,89.87
2022-12-04T09:53:22.619Z,91.60
2022-12-04T09:56:02.165Z,91.42
2022-12-04T09:58:36.954Z,90.55
2022-12-04T10:01:04.646Z,90.58
2022-12-04T10:03:31.629Z,90.61
2022-12-04T10:06:20.109Z,90.67
2022-12-04T10:08:52.696Z,89.62
2022-12-04T10:11:56.686Z,90.74
2022-12-04T10:14:46.045Z,90.22
2022-12-04T10:17:32.398Z,89.39
2022-12-04T10:20:18.183Z,89.02
2022-12-04T10:23:03.104Z,89.22
2022-12-04T10:25:32.269Z,89.86
2022-12-04T10:28:26.583Z,89.02
2022-12-04T10:30:57.741Z,89.68
2022-12-04T10:33:36.986Z,89.96
2022-12-04T10:36:04.703Z,89.14
2022-12-04T10:38:44.709Z,88.49
2022-12-04T10:41:39.057Z,88.26
2022-12-04T10:44:05.440Z,88.01
2022-12-04T10:46:34.746Z,89.31
2022-12-04T10:49:06.600Z,89.34
2022-12-04T10:51:41.143Z,88.77
2022-12-04T10:54:21.776Z,88.43
2022-12-04T10:56:57.404Z,88.43
2022-12-04T10:59:24.593Z,88.77
2022-12-04T11:02:04.657Z,88.97
2022-12-04T11:04:35.367Z,88.65
2022-12-04T11:07:15.819Z,87.91
2022-12-04T11:09:42.374Z,88.03
2022-12-04T11:12:18.219Z,87.47
2022-12-04T11:14:47.159Z,87.63
2022-12-04T11:17:19.693Z,87.75
2022-12-04T11:19:46.512Z,87.57
2022-12-04T11:22:19.092Z,88.50
2022-12-04T11:24:55.966Z,88.51
2022-12-04T11:27:36.029Z,87.24
2022-12-04T11:30:08.654Z,87.53
2022-12-04T11:32:35.925Z,87.88
2022-12-04T11:35:13.565Z,87.50
2022-12-04T11:37:45.134Z,87.56
2022-12-04T11:40:18.469Z,87.85
2022-12-04T11:42:45.039Z,87.70
2022-12-04T11:45:23.110Z,86.46
2022-12-04T11:47:55.260Z,87.06
2022-12-04T11:50:49.271Z,85.88
2022-12-04T11:53:24.042Z,85.68
2022-12-04T11:55:59.686Z,85.24
2022-12-04T11:58:48.647Z,86.72
2022-12-04T12:01:43.018Z,86.87
2022-12-04T12:04:30.559Z,85.83
2022-12-04T12:07:30.327Z,85.97
2022-12-04T12:10:06.349Z,85.59
2022-12-04T12:12:55.855Z,85.91
2022-12-04T12:15:39.712Z,85.36
2022-12-04T12:18:41.367Z,85.16
2022-12-04T12:21:22.123Z,85.55
2022-12-04T12:24:07.574Z,86.20
2022-12-04T12:27:05.871Z,85.46
2022-12-04T12:29:56.804Z,86.16
2022-12-04T12:32:54.332Z,86.22
2022-12-04T12:35:30.058Z,86.75
2022-12-04T12:38:02.201Z,86.60
2022-12-04T12:40:37.125Z,87.21
2022-12-04T12:43:09.761Z,87.62
2022-12-04T12:46:05.597Z,87.46
2022-12-04T12:48:59.836Z,86.60
2022-12-04T12:51:37.248Z,87.27
2022-12-04T12:54:22.133Z,87.86
2022-12-04T12:56:55.319Z,87.55
2022-12-04T12:59:25.522Z,87.99
2022-12-04T13:02:02.274Z,86.64
2022-12-04T13:04:42.137Z,86.05
2022-12-04T13:07:17.619Z,86.21
2022-12-04T13:10:07.695Z,86.69
2022-12-04T13:13:03.028Z,85.99
2022-12-04T13:15:41.739Z,86.05
2022-12-04T13:18:14.798Z,85.93
2022-12-04T13:20:51.175Z,86.94
2022-12-04T13:23:43.265Z,87.88
2022-12-04T13:26:49.739Z,85.76
2022-12-04T13:29:30.799Z,86.49
2022-12-04T13:32:08.329Z,86.72
2022-12-04T13:35:40.226Z,87.49
2022-12-04T13:38:27.041Z,89.83
2022-12-04T13:40:57.822Z,90.73
2022-12-04T13:43:44.547Z,92.70
2022-12-04T13:46:32.093Z,93.42
2022-12-04T13:49:27.784Z,91.85
2022-12-04T13:51:56.262Z,90.76
2022-12-04T13:54:32.759Z,88.12
2022-12-04T13:57:14.524Z,87.36
2022-12-04T13:59:42.145Z,86.71
2022-12-04T14:02:49.278Z,88.11
2022-12-04T14:05:15.969Z,87.60
2022-12-04T14:08:02.909Z,87.06
2022-12-04T14:10:37.104Z,87.16
2022-12-04T14:13:12.355Z,86.39
2022-12-04T14:15:40.280Z,86.34
2022-12-04T14:18:24.559Z,86.30
2022-12-04T14:21:00.576Z,85.92
2022-12-04T14:23:41.635Z,86.19
2022-12-04T14:27:03.621Z,87.37
2022-12-04T14:29:45.035Z,87.94
2022-12-04T14:32:18.731Z,86.88
2022-12-04T14:34:46.236Z,88.31
2022-12-04T14:37:22.138Z,88.24
2022-12-04T14:39:49.694Z,88.97
2022-12-04T14:42:17.662Z,85.99
2022-12-04T14:44:53.353Z,86.20
2022-12-04T14:47:54.168Z,86.48
2022-12-04T14:50:52.959Z,87.52
2022-12-04T14:53:35.965Z,87.35
2022-12-04T14:56:14.043Z,87.13
2022-12-04T14:58:40.610Z,87.46
2022-12-04T15:01:28.610Z,86.65
2022-12-04T15:03:59.113Z,86.87
2022-12-04T15:06:30.954Z,87.55
2022-12-04T15:09:21.596Z,87.93
2022-12-04T15:12:09.344Z,88.02
2022-12-04T15:14:42.832Z,88.20
2022-12-04T15:17:11.374Z,88.01
2022-12-04T15:19:38.795Z,87.99
2022-12-04T15:22:11.858Z,88.12
2022-12-04T15:24:38.995Z,88.56
2022-12-04T15:27:07.026Z,89.72
2022-12-04T15:29:38.019Z,89.23
2022-12-04T15:32:10.742Z,87.69
2022-12-04T15:34:47.955Z,88.50
2022-12-04T15:37:29.623Z,88.16
2022-12-04T15:39:57.217Z,89.20
2022-12-04T15:42:23.891Z,88.81
2022-12-04T15:44:55.430Z,88.88
2022-12-04T15:47:25.210Z,89.80
2022-12-04T15:49:51.685Z,89.68
2022-12-04T15:52:21.299Z,89.07
2022-12-04T15:54:54.439Z,87.63
2022-12-04T15:57:42.406Z,87.42
2022-12-04T16:00:33.974Z,86.78
2022-12-04T16:03:01.057Z,87.46
2022-12-04T16:05:32.793Z,87.26
2022-12-04T16:08:02.604Z,86.25
2022-12-04T16:10:35.105Z,87.18
2022-12-04T16:13:04.628Z,87.63
2022-12-04T16:15:40.785Z,87.92
2022-12-04T16:18:11.278Z,87.29
2022-12-04T16:20:39.423Z,87.05
2022-12-04T16:23:06.006Z,86.76
2022-12-04T16:25:32.577Z,86.87
2022-12-04T16:27:59.673Z,87.91
2022-12-04T16:30:28.379Z,87.52
2022-12-04T16:32:54.819Z,87.56
2022-12-04T16:35:21.519Z,87.91
2022-12-04T16:37:50.704Z,87.77
2022-12-04T16:40:17.379Z,87.10
2022-12-04T16:42:44.601Z,87.60
2022-12-04T16:45:31.343Z,87.88
2022-12-04T16:48:00.613Z,87.23
2022-12-04T16:50:28.266Z,87.30
2022-12-04T16:52:54.691Z,87.91
2022-12-04T16:55:39.229Z,87.83
2022-12-04T16:58:06.509Z,88.44
2022-12-04T17:00:33.092Z,88.16
2022-12-04T17:03:02.391Z,88.60
2022-12-04T17:05:30.300Z,88.73
2022-12-04T17:07:56.867Z,87.94
2022-12-04T17:10:24.469Z,87.69
2022-12-04T17:12:55.087Z,87.02
2022-12-04T17:15:22.090Z,87.34
2022-12-04T17:17:48.845Z,87.87
2022-12-04T17:20:17.713Z,87.72
2022-12-04T17:22:44.420Z,88.27
2022-12-04T17:25:11.938Z,87.89
2022-12-04T17:27:39.010Z,87.91
2022-12-04T17:30:06.672Z,87.33
2022-12-04T17:32:34.852Z,87.52
2022-12-04T17:35:02.507Z,88.13
2022-12-04T17:37:28.974Z,87.59
2022-12-04T17:39:55.534Z,88.37
2022-12-04T17:42:22.045Z,88.29
2022-12-04T17:44:51.464Z,88.78
2022-12-04T17:47:18.209Z,88.68
2022-12-04T17:49:44.712Z,88.76
2022-12-04T17:52:11.197Z,87.98
2022-12-04T17:54:37.813Z,88.06
2022-12-04T17:57:04.329Z,88.22
2022-12-04T17:59:30.731Z,88.56
2022-12-04T18:01:57.257Z,88.21
2022-12-04T18:04:24.949Z,88.20
2022-12-04T18:06:52.643Z,88.26
2022-12-04T18:09:19.400Z,88.21
2022-12-04T18:11:47.606Z,88.22
2022-12-04T18:14:17.029Z,88.53
2022-12-04T18:16:46.157Z,87.92
2022-12-04T18:19:14.357Z,87.69
2022-12-04T18:21:40.971Z,87.79
2022-12-04T18:24:07.772Z,87.85
2022-12-04T18:26:42.843Z,88.22
2022-12-04T18:29:12.576Z,88.24
2022-12-04T18:31:39.325Z,88.21
2022-12-04T18:34:09.649Z,88.28
2022-12-04T18:36:40.188Z,88.39
2022-12-04T18:39:10.547Z,88.40
2022-12-04T18:41:37.423Z,88.72
2022-12-04T18:44:04.183Z,88.33
2022-12-04T18:46:31.188Z,88.83
2022-12-04T18:48:59.144Z,89.35
2022-12-04T18:51:48.910Z,88.86
2022-12-04T18:54:19.215Z,89.42
2022-12-04T18:56:45.930Z,89.18
2022-12-04T18:59:21.254Z,89.11
2022-12-04T19:01:52.042Z,90.03
2022-12-04T19:04:20.319Z,89.69
2022-12-04T19:06:49.277Z,89.02
2022-12-04T19:09:18.669Z,89.76
2022-12-04T19:11:45.892Z,89.31
2022-12-04T19:14:21.013Z,89.01
2022-12-04T19:16:49.065Z,89.03
2022-12-04T19:19:15.804Z,89.42
2022-12-04T19:21:42.300Z,89.49
2022-12-04T19:24:09.533Z,88.71
2022-12-04T19:26:36.156Z,89.57
2022-12-04T19:29:03.939Z,88.61
2022-12-04T19:31:33.450Z,89.21
2022-12-04T19:34:00.419Z,89.25
2022-12-04T19:36:28.827Z,89.39
2022-12-04T19:38:57.350Z,89.64
2022-12-04T19:41:26.579Z,89.83
2022-12-04T19:43:56.357Z,89.38
2022-12-04T19:46:28.004Z,89.38
2022-12-04T19:48:58.514Z,89.62
2022-12-04T19:51:25.885Z,89.17
2022-12-04T19:53:54.460Z,88.92
2022-12-04T19:56:24.496Z,89.08
2022-12-04T19:58:53.130Z,89.40
2022-12-04T20:01:24.062Z,89.36
2022-12-04T20:03:51.121Z,88.99
2022-12-04T20:06:19.907Z,88.64
2022-12-04T20:08:50.101Z,88.67
2022-12-04T20:11:19.237Z,89.25
2022-12-04T20:13:47.869Z,89.11
2022-12-04T20:16:17.890Z,89.25
2022-12-04T20:18:45.345Z,89.10
2022-12-04T20:21:13.261Z,88.70
2022-12-04T20:23:46.406Z,88.79
2022-12-04T20:26:14.241Z,88.57
2022-12-04T20:28:41.469Z,88.65
2022-12-04T20:31:30.450Z,89.08
2022-12-04T20:33:59.133Z,88.10
2022-12-04T20:36:27.830Z,88.35
2022-12-04T20:38:58.115Z,88.69
2022-12-04T20:41:26.612Z,88.28
2022-12-04T20:43:53.447Z,88.28
2022-12-04T20:46:31.415Z,88.16
2022-12-04T20:48:59.042Z,88.45
2022-12-04T20:51:28.629Z,88.34
2022-12-04T20:53:58.064Z,88.52
2022-12-04T20:56:26.954Z,89.05
2022-12-04T20:58:54.948Z,88.83
2022-12-04T21:01:21.564Z,88.52
2022-12-04T21:03:48.073Z,88.34
2022-12-04T21:06:17.861Z,88.47
2022-12-04T21:08:53.270Z,88.15
2022-12-04T21:11:25.876Z,89.00
2022-12-04T21:14:12.790Z,87.94
2022-12-04T21:16:40.038Z,87.94
2022-12-04T21:19:08.686Z,88.54
2022-12-04T21:21:36.145Z,89.58
2022-12-04T21:24:04.123Z,89.47
2022-12-04T21:26:31.297Z,89.76
2022-12-04T21:28:58.455Z,89.22
2022-12-04T21:31:28.114Z,89.61
2022-12-04T21:33:55.844Z,89.05
2022-12-04T21:36:22.660Z,89.12
2022-12-04T21:38:49.278Z,89.46
2022-12-04T21:41:36.205Z,89.92
2022-12-04T21:44:11.838Z,89.98
2022-12-04T21:46:39.134Z,89.47
2022-12-04T21:49:06.623Z,89.12
2022-12-04T21:51:56.244Z,89.71
2022-12-04T21:54:20.591Z,89.22
2022-12-04T21:56:47.234Z,89.40
2022-12-04T21:59:13.611Z,89.28
2022-12-04T22:01:40.853Z,89.47
2022-12-04T22:04:10.072Z,89.85
2022-12-04T22:06:37.786Z,89.94
2022-12-04T22:09:07.612Z,90.06
2022-12-04T22:11:34.089Z,90.60
2022-12-04T22:14:00.566Z,91.12
2022-12-04T22:16:30.672Z,90.85
2022-12-04T22:18:58.750Z,90.96
2022-12-04T22:21:26.903Z,90.47
2022-12-04T22:24:01.271Z,90.00
2022-12-04T22:26:29.265Z,89.90
2022-12-04T22:28:56.598Z,90.54
2022-12-04T22:31:25.939Z,90.41
2022-12-04T22:33:54.421Z,91.04
2022-12-04T22:36:24.331Z,90.44
2022-12-04T22:39:09.913Z,90.63
2022-12-04T22:41:37.473Z,90.54
2022-12-04T22:44:04.605Z,90.69
2022-12-04T22:46:31.175Z,91.26
2022-12-04T22:48:59.077Z,91.11
2022-12-04T22:51:26.156Z,91.24
2022-12-04T22:53:56.102Z,91.72
2022-12-04T22:56:26.100Z,91.03
2022-12-04T22:58:53.243Z,90.97
2022-12-04T23:01:24.780Z,91.68
2022-12-04T23:03:52.017Z,91.88
2022-12-04T23:06:20.123Z,92.41
2022-12-04T23:08:47.002Z,92.56
2022-12-04T23:11:19.201Z,91.75
2022-12-04T23:13:51.163Z,91.43
2022-12-04T23:16:20.309Z,91.46
2022-12-04T23:18:47.793Z,91.19
2022-12-04T23:21:15.288Z,90.79
2022-12-04T23:23:44.344Z,91.24
2022-12-04T23:26:13.208Z,91.13
2022-12-04T23:28:40.155Z,91.59
2022-12-04T23:31:06.864Z,92.07
2022-12-04T23:33:33.413Z,91.98
2022-12-04T23:36:01.432Z,91.85
2022-12-04T23:38:29.652Z,91.71
2022-12-04T23:41:11.628Z,91.62
2022-12-04T23:43:38.656Z,91.75
2022-12-04T23:46:10.981Z,91.74
2022-12-04T23:48:39.437Z,91.77
2022-12-04T23:51:06.759Z,91.44
2022-12-04T23:53:33.473Z,91.59
2022-12-04T23:56:06.400Z,91.70
2022-12-04T23:58:33.801Z,91.94
